createdAt,value
2023-05-01T00:00:05.653Z,100928.25
2023-05-01T00:01:08.933Z,100927.44
2023-05-01T00:02:12.753Z,100934.72
2023-05-01T00:03:18.913Z,100934.91
2023-05-01T00:04:23.654Z,100940.50
2023-05-01T00:05:27.768Z,100935.28
2023-05-01T00:06:33.979Z,100929.41
2023-05-01T00:07:37.988Z,100939.41
2023-05-01T00:08:41.724Z,100937.72
2023-05-01T00:09:45.857Z,100934.38
2023-05-01T00:10:49.257Z,100928.97
2023-05-01T00:11:52.539Z,100932.69
2023-05-01T00:12:55.730Z,100938.94
2023-05-01T00:13:59.332Z,100935.41
2023-05-01T00:15:02.781Z,100919.16
2023-05-01T00:16:12.519Z,100927.28
2023-05-01T00:17:16.260Z,100930.13
2023-05-01T00:18:19.775Z,100929.31
2023-05-01T00:19:23.178Z,100923.88
2023-05-01T00:20:30.694Z,100924.09
2023-05-01T00:21:34.708Z,100925.75
2023-05-01T00:22:38.676Z,100917.84
2023-05-01T00:23:42.047Z,100918.88
2023-05-01T00:24:45.989Z,100922.59
2023-05-01T00:25:50.089Z,100925.69
2023-05-01T00:26:53.564Z,100922.34
2023-05-01T00:27:56.985Z,100918.97
2023-05-01T00:29:00.068Z,100916.66
2023-05-01T00:30:04.398Z,100920.38
2023-05-01T00:31:07.852Z,100913.50
2023-05-01T00:32:12.079Z,100916.22
2023-05-01T00:33:16.419Z,100914.72
2023-05-01T00:34:20.414Z,100910.31
2023-05-01T00:35:24.360Z,100906.16
2023-05-01T00:36:28.124Z,100909.03
2023-05-01T00:37:31.703Z,100908.38
2023-05-01T00:38:34.854Z,100904.00
2023-05-01T00:39:38.081Z,100901.50
2023-05-01T00:40:47.859Z,100904.38
2023-05-01T00:41:51.867Z,100904.38
2023-05-01T00:42:56.356Z,100901.00
2023-05-01T00:44:00.573Z,100905.63
2023-05-01T00:45:05.026Z,100904.78
2023-05-01T00:46:09.202Z,100904.78
2023-05-01T00:47:13.332Z,100903.94
2023-05-01T00:48:17.320Z,100899.53
2023-05-01T00:49:21.006Z,100896.00
2023-05-01T00:50:24.907Z,100899.53
2023-05-01T00:51:28.816Z,100904.13
2023-05-01T00:52:31.829Z,100899.34
2023-05-01T00:53:35.560Z,100902.06
2023-05-01T00:54:39.131Z,100901.00
2023-05-01T00:55:43.021Z,100900.84
2023-05-01T00:56:48.608Z,100899.81
2023-05-01T00:57:52.241Z,100899.63
2023-05-01T00:58:56.116Z,100896.91
2023-05-01T01:00:00.072Z,100899.63
2023-05-01T01:01:04.147Z,100893.19
2023-05-01T01:02:08.306Z,100890.28
2023-05-01T01:03:12.688Z,100887.78
2023-05-01T01:04:16.765Z,100884.88
2023-05-01T01:05:20.684Z,100885.69
2023-05-01T01:06:44.777Z,100885.69
2023-05-01T01:08:27.787Z,100881.13
2023-05-01T01:09:46.393Z,100872.19
2023-05-01T01:11:16.562Z,100874.03
2023-05-01T01:12:33.238Z,100877.59
2023-05-01T01:13:45.428Z,100874.03
2023-05-01T01:14:56.533Z,100868.63
2023-05-01T01:16:22.522Z,100875.72
2023-05-01T01:17:48.044Z,100868.63
2023-05-01T01:18:59.527Z,100875.28
2023-05-01T01:20:30.188Z,100868.84
2023-05-01T01:21:41.598Z,100862.78
2023-05-01T01:22:47.791Z,100865.66
2023-05-01T01:24:10.322Z,100868.38
2023-05-01T01:25:31.158Z,100863.13
2023-05-01T01:26:35.009Z,100861.66
2023-05-01T01:28:07.335Z,100857.66
2023-05-01T01:29:40.666Z,100850.94
2023-05-01T01:31:05.250Z,100847.59
2023-05-01T01:32:40.485Z,100844.25
2023-05-01T01:33:56.579Z,100844.63
2023-05-01T01:35:11.401Z,100842.13
2023-05-01T01:36:22.376Z,100836.72
2023-05-01T01:37:30.353Z,100837.72
2023-05-01T01:38:41.949Z,100838.75
2023-05-01T01:39:56.463Z,100836.03
2023-05-01T01:41:15.905Z,100844.16
2023-05-01T01:42:37.615Z,100835.03
2023-05-01T01:43:44.142Z,100839.41
2023-05-01T01:44:55.906Z,100836.25
2023-05-01T01:46:01.735Z,100824.97
2023-05-01T01:47:07.262Z,100829.09
2023-05-01T01:48:18.746Z,100825.66
2023-05-01T01:49:26.806Z,100825.94
2023-05-01T01:50:30.693Z,100826.69
2023-05-01T01:51:34.310Z,100815.31
2023-05-01T01:52:38.743Z,100809.00
2023-05-01T01:53:46.271Z,100823.53
2023-05-01T01:54:54.391Z,100813.75
2023-05-01T01:55:58.293Z,100815.16
2023-05-01T01:57:03.263Z,100815.88
2023-05-01T01:58:07.090Z,100815.78
2023-05-01T01:59:11.352Z,100815.09
2023-05-01T02:00:14.857Z,100814.47
2023-05-01T02:01:22.768Z,100811.09
2023-05-01T02:02:27.759Z,100811.94
2023-05-01T02:03:32.298Z,100811.94
2023-05-01T02:04:35.927Z,100809.91
2023-05-01T02:05:41.786Z,100812.41
2023-05-01T02:06:45.183Z,100802.44
2023-05-01T02:07:50.335Z,100795.84
2023-05-01T02:08:53.645Z,100809.81
2023-05-01T02:09:57.375Z,100795.09
2023-05-01T02:11:02.200Z,100790.72
2023-05-01T02:12:06.721Z,100792.19
2023-05-01T02:13:10.784Z,100798.28
2023-05-01T02:14:14.406Z,100791.88
2023-05-01T02:15:19.309Z,100788.16
2023-05-01T02:16:23.980Z,100783.59
2023-05-01T02:17:28.789Z,100786.06
2023-05-01T02:18:32.437Z,100789.44
2023-05-01T02:19:35.566Z,100784.03
2023-05-01T02:20:39.204Z,100782.00
2023-05-01T02:21:42.315Z,100780.31
2023-05-01T02:22:46.857Z,100775.53
2023-05-01T02:23:51.316Z,100781.16
2023-05-01T02:24:55.315Z,100779.47
2023-05-01T02:25:59.029Z,100775.25
2023-05-01T02:27:20.077Z,100776.50
2023-05-01T02:28:24.278Z,100777.66
2023-05-01T02:29:28.204Z,100783.91
2023-05-01T02:30:31.492Z,100787.47
2023-05-01T02:31:36.087Z,100785.97
2023-05-01T02:32:40.456Z,100780.09
2023-05-01T02:33:44.053Z,100789.41
2023-05-01T02:34:48.006Z,100787.56
2023-05-01T02:35:51.558Z,100782.16
2023-05-01T02:36:55.044Z,100782.50
2023-05-01T02:37:58.744Z,100784.19
2023-05-01T02:39:02.452Z,100778.34
2023-05-01T02:40:07.551Z,100781.56
2023-05-01T02:41:12.270Z,100786.97
2023-05-01T02:42:16.750Z,100776.16
2023-05-01T02:43:21.736Z,100772.44
2023-05-01T02:44:25.051Z,100767.03
2023-05-01T02:45:28.804Z,100771.06
2023-05-01T02:46:33.041Z,100769.41
2023-05-01T02:47:39.477Z,100768.16
2023-05-01T02:48:42.870Z,100775.06
2023-05-01T02:49:48.654Z,100775.06
2023-05-01T02:50:52.799Z,100770.50
2023-05-01T02:51:56.722Z,100768.66
2023-05-01T02:53:01.544Z,100770.50
2023-05-01T02:54:15.556Z,100771.88
2023-05-01T02:55:20.069Z,100769.41
2023-05-01T02:56:24.069Z,100773.97
2023-05-01T02:57:27.744Z,100780.00
2023-05-01T02:58:33.338Z,100783.53
2023-05-01T02:59:37.837Z,100775.25
2023-05-01T03:00:41.927Z,100784.19
2023-05-01T03:01:45.296Z,100787.56
2023-05-01T03:02:48.731Z,100782.78
2023-05-01T03:03:52.844Z,100783.63
2023-05-01T03:04:57.597Z,100776.38
2023-05-01T03:06:01.683Z,100775.53
2023-05-01T03:07:07.329Z,100776.38
2023-05-01T03:08:11.677Z,100778.06
2023-05-01T03:09:16.075Z,100783.44
2023-05-01T03:10:19.675Z,100780.94
2023-05-01T03:11:23.472Z,100780.94
2023-05-01T03:12:26.962Z,100786.50
2023-05-01T03:13:30.660Z,100790.25
2023-05-01T03:14:34.270Z,100793.31
2023-05-01T03:15:38.535Z,100803.09
2023-05-01T03:16:42.217Z,100805.81
2023-05-01T03:17:46.206Z,100801.25
2023-05-01T03:18:50.508Z,100810.19
2023-05-01T03:19:53.801Z,100808.34
2023-05-01T03:20:59.967Z,100815.41
2023-05-01T03:22:04.753Z,100819.97
2023-05-01T03:23:08.344Z,100817.91
2023-05-01T03:24:12.276Z,100818.94
2023-05-01T03:25:16.688Z,100817.06
2023-05-01T03:26:20.279Z,100815.41
2023-05-01T03:27:23.844Z,100819.78
2023-05-01T03:28:28.113Z,100818.94
2023-05-01T03:29:32.320Z,100821.63
2023-05-01T03:30:37.292Z,100823.31
2023-05-01T03:31:41.223Z,100820.63
2023-05-01T03:32:47.611Z,100820.63
2023-05-01T03:33:59.560Z,100816.91
2023-05-01T03:35:03.376Z,100821.28
2023-05-01T03:36:07.142Z,100825.00
2023-05-01T03:37:11.578Z,100819.22
2023-05-01T03:38:15.541Z,100806.53
2023-05-01T03:39:55.287Z,100809.94
2023-05-01T03:41:16.844Z,100798.94
2023-05-01T03:42:39.065Z,100801.44
2023-05-01T03:43:50.977Z,100802.94
2023-05-01T03:45:16.357Z,100808.34
2023-05-01T03:46:20.274Z,100798.38
2023-05-01T03:47:24.577Z,100795.69
2023-05-01T03:48:28.236Z,100790.47
2023-05-01T03:49:31.743Z,100794.19
2023-05-01T03:50:35.154Z,100796.25
2023-05-01T03:51:38.571Z,100795.59
2023-05-01T03:52:42.595Z,100795.66
2023-05-01T03:53:46.594Z,100803.28
2023-05-01T03:54:50.532Z,100801.81
2023-05-01T03:56:00.145Z,100802.81
2023-05-01T03:57:03.592Z,100804.88
2023-05-01T03:58:08.212Z,100803.00
2023-05-01T03:59:12.004Z,100808.22
2023-05-01T04:00:15.947Z,100807.22
2023-05-01T04:01:19.073Z,100804.13
2023-05-01T04:02:25.442Z,100809.19
2023-05-01T04:03:29.630Z,100800.69
2023-05-01T04:04:34.187Z,100814.84
2023-05-01T04:05:38.216Z,100801.97
2023-05-01T04:06:42.566Z,100794.38
2023-05-01T04:07:45.985Z,100797.94
2023-05-01T04:08:50.183Z,100796.88
2023-05-01T04:09:53.705Z,100807.69
2023-05-01T04:10:57.530Z,100795.69
2023-05-01T04:12:03.270Z,100798.38
2023-05-01T04:13:08.060Z,100801.94
2023-05-01T04:14:11.999Z,100797.16
2023-05-01T04:15:17.037Z,100797.81
2023-05-01T04:16:20.579Z,100801.19
2023-05-01T04:17:24.662Z,100806.19
2023-05-01T04:18:28.424Z,100803.13
2023-05-01T04:19:36.236Z,100810.84
2023-05-01T04:20:40.921Z,100812.16
2023-05-01T04:21:44.625Z,100813.47
2023-05-01T04:22:48.738Z,100813.91
2023-05-01T04:23:52.799Z,100814.38
2023-05-01T04:24:57.010Z,100807.75
2023-05-01T04:26:00.516Z,100811.94
2023-05-01T04:27:03.702Z,100816.97
2023-05-01T04:28:07.232Z,100821.16
2023-05-01T04:29:11.029Z,100810.81
2023-05-01T04:30:14.580Z,100807.06
2023-05-01T04:31:18.541Z,100806.88
2023-05-01T04:32:22.587Z,100805.00
2023-05-01T04:33:26.669Z,100802.13
2023-05-01T04:34:31.047Z,100809.00
2023-05-01T04:35:34.196Z,100806.13
2023-05-01T04:36:38.104Z,100813.03
2023-05-01T04:37:42.217Z,100809.47
2023-05-01T04:38:46.299Z,100803.84
2023-05-01T04:39:51.888Z,100800.13
2023-05-01T04:40:57.337Z,100805.53
2023-05-01T04:42:01.138Z,100812.63
2023-05-01T04:43:05.144Z,100812.63
2023-05-01T04:44:09.305Z,100808.06
2023-05-01T04:45:13.158Z,100813.47
2023-05-01T04:46:17.347Z,100810.94
2023-05-01T04:47:21.424Z,100811.97
2023-05-01T04:48:25.353Z,100823.44
2023-05-01T04:49:28.600Z,100815.34
2023-05-01T04:50:32.831Z,100816.00
2023-05-01T04:51:36.715Z,100819.31
2023-05-01T04:52:40.218Z,100815.59
2023-05-01T04:53:43.576Z,100819.13
2023-05-01T04:54:58.886Z,100819.97
2023-05-01T04:56:05.122Z,100818.13
2023-05-01T04:57:10.061Z,100811.88
2023-05-01T04:58:13.784Z,100818.97
2023-05-01T04:59:18.074Z,100817.28
2023-05-01T05:00:22.437Z,100815.41
2023-05-01T05:01:31.564Z,100815.41
2023-05-01T05:02:35.559Z,100824.16
2023-05-01T05:03:39.014Z,100825.66
2023-05-01T05:04:42.645Z,100820.25
2023-05-01T05:05:47.454Z,100816.50
2023-05-01T05:06:51.926Z,100814.66
2023-05-01T05:08:03.712Z,100814.44
2023-05-01T05:09:12.124Z,100811.94
2023-05-01T05:10:15.991Z,100814.84
2023-05-01T05:11:25.513Z,100809.44
2023-05-01T05:12:49.722Z,100821.09
2023-05-01T05:13:53.458Z,100816.50
2023-05-01T05:14:57.304Z,100821.94
2023-05-01T05:16:01.418Z,100819.22
2023-05-01T05:17:05.321Z,100825.25
2023-05-01T05:18:08.911Z,100828.63
2023-05-01T05:19:12.303Z,100814.06
2023-05-01T05:20:18.899Z,100825.72
2023-05-01T05:21:22.423Z,100829.06
2023-05-01T05:22:29.603Z,100821.16
2023-05-01T05:23:54.054Z,100824.91
2023-05-01T05:25:01.429Z,100822.00
2023-05-01T05:26:06.155Z,100824.91
2023-05-01T05:27:09.366Z,100823.22
2023-05-01T05:28:13.188Z,100825.06
2023-05-01T05:29:18.509Z,100832.16
2023-05-01T05:30:21.779Z,100829.47
2023-05-01T05:31:25.502Z,100826.75
2023-05-01T05:32:30.428Z,100829.47
2023-05-01T05:33:33.930Z,100831.16
2023-05-01T05:34:37.600Z,100831.16
2023-05-01T05:35:41.559Z,100829.06
2023-05-01T05:36:44.837Z,100831.78
2023-05-01T05:37:48.280Z,100822.84
2023-05-01T05:38:52.797Z,100829.91
2023-05-01T05:39:56.556Z,100829.91
2023-05-01T05:41:01.892Z,100826.34
2023-05-01T05:42:07.097Z,100828.88
2023-05-01T05:43:11.690Z,100826.19
2023-05-01T05:44:16.490Z,100837.56
2023-05-01T05:45:21.936Z,100836.47
2023-05-01T05:46:25.617Z,100831.81
2023-05-01T05:47:29.199Z,100833.88
2023-05-01T05:48:33.030Z,100833.88
2023-05-01T05:49:37.173Z,100836.97
2023-05-01T05:50:41.058Z,100843.03
2023-05-01T05:51:45.657Z,100848.44
2023-05-01T05:52:49.215Z,100843.88
2023-05-01T05:53:53.219Z,100848.06
2023-05-01T05:54:57.278Z,100840.59
2023-05-01T05:56:01.148Z,100848.31
2023-05-01T05:57:07.387Z,100848.97
2023-05-01T05:58:20.859Z,100848.59
2023-05-01T05:59:25.950Z,100854.47
2023-05-01T06:00:29.751Z,100854.91
2023-05-01T06:01:38.259Z,100858.06
2023-05-01T06:02:42.178Z,100852.47
2023-05-01T06:03:45.826Z,100861.25
2023-05-01T06:04:49.869Z,100859.81
2023-05-01T06:05:56.255Z,100862.97
2023-05-01T06:07:01.257Z,100858.22
2023-05-01T06:08:05.111Z,100865.09
2023-05-01T06:09:13.684Z,100864.91
2023-05-01T06:10:17.972Z,100860.16
2023-05-01T06:11:22.404Z,100865.56
2023-05-01T06:12:26.352Z,100859.31
2023-05-01T06:13:30.318Z,100863.72
2023-05-01T06:14:33.749Z,100860.59
2023-05-01T06:15:40.456Z,100858.59
2023-05-01T06:16:43.902Z,100856.91
2023-05-01T06:17:47.149Z,100866.97
2023-05-01T06:18:50.526Z,100861.53
2023-05-01T06:19:54.122Z,100867.81
2023-05-01T06:20:58.048Z,100864.06
2023-05-01T06:22:02.195Z,100875.72
2023-05-01T06:23:10.628Z,100872.81
2023-05-01T06:24:24.097Z,100870.94
2023-05-01T06:25:29.141Z,100872.81
2023-05-01T06:26:32.574Z,100875.34
2023-05-01T06:27:36.569Z,100871.59
2023-05-01T06:28:40.363Z,100875.78
2023-05-01T06:29:43.994Z,100878.97
2023-05-01T06:30:47.227Z,100877.53
2023-05-01T06:31:52.470Z,100874.16
2023-05-01T06:32:56.388Z,100876.03
2023-05-01T06:34:00.365Z,100873.56
2023-05-01T06:35:24.034Z,100876.34
2023-05-01T06:36:27.604Z,100874.03
2023-05-01T06:37:31.748Z,100878.81
2023-05-01T06:38:36.204Z,100871.34
2023-05-01T06:39:40.058Z,100873.81
2023-05-01T06:40:43.765Z,100867.19
2023-05-01T06:41:48.619Z,100873.47
2023-05-01T06:43:00.339Z,100870.56
2023-05-01T06:44:05.667Z,100867.44
2023-05-01T06:45:09.136Z,100877.50
2023-05-01T06:46:13.050Z,100883.16
2023-05-01T06:47:17.251Z,100874.44
2023-05-01T06:48:20.436Z,100873.22
2023-05-01T06:49:24.254Z,100880.97
2023-05-01T06:50:27.792Z,100872.44
2023-05-01T06:51:32.507Z,100873.31
2023-05-01T06:52:35.872Z,100864.41
2023-05-01T06:53:40.953Z,100864.16
2023-05-01T06:54:44.732Z,100872.88
2023-05-01T06:55:48.466Z,100874.09
2023-05-01T06:56:52.210Z,100865.97
2023-05-01T06:57:55.338Z,100864.94
2023-05-01T06:58:58.914Z,100858.69
2023-05-01T07:00:02.799Z,100872.44
2023-05-01T07:01:06.826Z,100867.88
2023-05-01T07:02:10.991Z,100870.00
2023-05-01T07:03:15.153Z,100874.56
2023-05-01T07:04:18.490Z,100876.03
2023-05-01T07:05:23.386Z,100873.97
2023-05-01T07:06:28.317Z,100875.00
2023-05-01T07:07:32.537Z,100877.94
2023-05-01T07:08:36.289Z,100870.47
2023-05-01T07:09:39.977Z,100871.31
2023-05-01T07:10:43.850Z,100866.31
2023-05-01T07:11:47.320Z,100870.53
2023-05-01T07:12:51.526Z,100869.09
2023-05-01T07:13:55.851Z,100874.31
2023-05-01T07:14:59.295Z,100871.38
2023-05-01T07:16:03.292Z,100873.53
2023-05-01T07:17:07.744Z,100872.47
2023-05-01T07:18:12.976Z,100870.41
2023-05-01T07:19:16.382Z,100877.53
2023-05-01T07:20:19.508Z,100876.72
2023-05-01T07:21:22.836Z,100872.31
2023-05-01T07:22:26.142Z,100881.06
2023-05-01T07:23:29.640Z,100876.91
2023-05-01T07:24:33.189Z,100872.69
2023-05-01T07:25:41.890Z,100872.69
2023-05-01T07:26:45.022Z,100878.13
2023-05-01T07:27:48.437Z,100881.47
2023-05-01T07:28:52.384Z,100873.63
2023-05-01T07:29:58.775Z,100881.38
2023-05-01T07:31:02.623Z,100880.75
2023-05-01T07:32:07.074Z,100879.91
2023-05-01T07:33:10.624Z,100877.22
2023-05-01T07:34:14.738Z,100872.41
2023-05-01T07:35:18.668Z,100876.78
2023-05-01T07:36:22.844Z,100877.03
2023-05-01T07:37:28.032Z,100868.28
2023-05-01T07:38:31.678Z,100860.16
2023-05-01T07:39:35.508Z,100859.53
2023-05-01T07:40:39.628Z,100862.28
2023-05-01T07:41:43.594Z,100856.00
2023-05-01T07:42:47.494Z,100857.47
2023-05-01T07:43:51.530Z,100854.38
2023-05-01T07:44:55.622Z,100863.34
2023-05-01T07:46:02.232Z,100865.91
2023-05-01T07:47:06.788Z,100864.44
2023-05-01T07:48:10.416Z,100861.34
2023-05-01T07:49:14.117Z,100859.25
2023-05-01T07:50:17.781Z,100858.44
2023-05-01T07:51:21.268Z,100864.72
2023-05-01T07:52:24.833Z,100868.91
2023-05-01T07:53:28.743Z,100870.56
2023-05-01T07:54:32.233Z,100859.75
2023-05-01T07:55:35.549Z,100861.81
2023-05-01T07:56:38.910Z,100868.53
2023-05-01T07:57:42.935Z,100861.84
2023-05-01T07:58:46.783Z,100863.94
2023-05-01T07:59:54.733Z,100866.84
2023-05-01T08:00:58.053Z,100865.19
2023-05-01T08:02:01.687Z,100864.84
2023-05-01T08:03:05.939Z,100862.34
2023-05-01T08:04:09.737Z,100871.53
2023-05-01T08:05:13.407Z,100859.19
2023-05-01T08:06:17.205Z,100864.44
2023-05-01T08:07:21.222Z,100865.25
2023-05-01T08:08:24.894Z,100873.22
2023-05-01T08:09:28.438Z,100870.28
2023-05-01T08:10:31.830Z,100874.44
2023-05-01T08:11:35.716Z,100866.91
2023-05-01T08:12:40.188Z,100876.91
2023-05-01T08:13:44.111Z,100871.06
2023-05-01T08:14:47.963Z,100864.19
2023-05-01T08:15:51.657Z,100865.19
2023-05-01T08:16:56.265Z,100873.13
2023-05-01T08:17:59.853Z,100873.09
2023-05-01T08:19:03.817Z,100866.22
2023-05-01T08:20:07.734Z,100868.50
2023-05-01T08:21:11.922Z,100877.72
2023-05-01T08:22:15.747Z,100871.00
2023-05-01T08:23:19.594Z,100872.81
2023-05-01T08:24:23.288Z,100874.63
2023-05-01T08:25:26.405Z,100871.88
2023-05-01T08:26:30.055Z,100882.94
2023-05-01T08:27:34.749Z,100878.50
2023-05-01T08:28:38.575Z,100878.06
2023-05-01T08:29:42.818Z,100873.09
2023-05-01T08:30:46.791Z,100874.38
2023-05-01T08:31:49.922Z,100879.94
2023-05-01T08:32:53.605Z,100875.81
2023-05-01T08:33:57.020Z,100876.41
2023-05-01T08:34:59.959Z,100875.03
2023-05-01T08:36:03.568Z,100871.91
2023-05-01T08:37:07.277Z,100873.34
2023-05-01T08:38:12.192Z,100872.09
2023-05-01T08:39:16.587Z,100872.03
2023-05-01T08:40:20.307Z,100873.59
2023-05-01T08:41:24.636Z,100878.88
2023-05-01T08:42:29.823Z,100882.22
2023-05-01T08:43:34.581Z,100878.56
2023-05-01T08:44:40.426Z,100882.50
2023-05-01T08:45:44.381Z,100885.56
2023-05-01T08:46:53.998Z,100889.06
2023-05-01T08:47:57.482Z,100895.13
2023-05-01T08:49:01.021Z,100889.16
2023-05-01T08:50:04.752Z,100879.25
2023-05-01T08:51:08.639Z,100877.34
2023-05-01T08:52:12.708Z,100880.88
2023-05-01T08:53:19.179Z,100878.06
2023-05-01T08:54:23.362Z,100884.63
2023-05-01T08:55:26.776Z,100888.69
2023-05-01T08:56:32.325Z,100886.88
2023-05-01T08:57:36.343Z,100884.19
2023-05-01T08:58:39.798Z,100883.16
2023-05-01T08:59:43.861Z,100878.81
2023-05-01T09:00:48.202Z,100877.81
2023-05-01T09:01:51.688Z,100872.09
2023-05-01T09:02:55.204Z,100881.38
2023-05-01T09:03:59.582Z,100878.97
2023-05-01T09:05:04.892Z,100871.56
2023-05-01T09:06:08.508Z,100874.13
2023-05-01T09:07:12.999Z,100876.03
2023-05-01T09:08:17.094Z,100881.28
2023-05-01T09:09:20.845Z,100874.16
2023-05-01T09:10:24.558Z,100882.53
2023-05-01T09:11:28.500Z,100872.00
2023-05-01T09:12:36.033Z,100873.94
2023-05-01T09:13:39.745Z,100867.66
2023-05-01T09:14:43.584Z,100864.72
2023-05-01T09:15:47.283Z,100874.25
2023-05-01T09:16:50.816Z,100873.13
2023-05-01T09:17:55.312Z,100877.69
2023-05-01T09:19:00.003Z,100872.47
2023-05-01T09:20:07.172Z,100873.53
2023-05-01T09:21:11.062Z,100873.72
2023-05-01T09:22:14.203Z,100875.97
2023-05-01T09:23:17.585Z,100868.16
2023-05-01T09:24:21.883Z,100874.34
2023-05-01T09:25:25.296Z,100875.50
2023-05-01T09:26:28.978Z,100869.31
2023-05-01T09:27:38.067Z,100873.94
2023-05-01T09:28:47.861Z,100865.59
2023-05-01T09:29:51.709Z,100865.81
2023-05-01T09:30:54.971Z,100856.16
2023-05-01T09:31:59.335Z,100868.53
2023-05-01T09:33:20.660Z,100862.88
2023-05-01T09:34:24.382Z,100868.78
2023-05-01T09:35:28.576Z,100862.69
2023-05-01T09:36:33.349Z,100861.34
2023-05-01T09:37:37.567Z,100870.63
2023-05-01T09:38:40.959Z,100867.91
2023-05-01T09:39:44.437Z,100866.72
2023-05-01T09:40:48.083Z,100864.75
2023-05-01T09:41:53.671Z,100865.88
2023-05-01T09:42:57.375Z,100865.06
2023-05-01T09:44:00.971Z,100864.75
2023-05-01T09:45:05.995Z,100873.94
2023-05-01T09:46:11.617Z,100878.66
2023-05-01T09:47:23.527Z,100873.28
2023-05-01T09:48:27.344Z,100880.09
2023-05-01T09:49:47.441Z,100873.59
2023-05-01T09:50:50.493Z,100866.06
2023-05-01T09:51:53.801Z,100872.81
2023-05-01T09:52:57.348Z,100877.03
2023-05-01T09:54:02.433Z,100870.91
2023-05-01T09:55:18.727Z,100869.00
2023-05-01T09:56:22.863Z,100875.56
2023-05-01T09:57:41.360Z,100874.19
2023-05-01T09:58:45.199Z,100879.50
2023-05-01T10:00:03.715Z,100876.59
2023-05-01T10:01:07.596Z,100873.59
2023-05-01T10:02:28.915Z,100874.38
2023-05-01T10:03:33.276Z,100867.88
2023-05-01T10:04:36.829Z,100871.84
2023-05-01T10:05:46.062Z,100868.47
2023-05-01T10:06:49.539Z,100866.41
2023-05-01T10:08:00.243Z,100868.59
2023-05-01T10:09:04.642Z,100865.25
2023-05-01T10:10:20.926Z,100859.75
2023-05-01T10:11:25.258Z,100868.38
2023-05-01T10:12:29.296Z,100863.94
2023-05-01T10:13:33.292Z,100866.19
2023-05-01T10:14:55.173Z,100863.72
2023-05-01T10:15:59.195Z,100862.97
2023-05-01T10:17:03.161Z,100855.75
2023-05-01T10:18:06.885Z,100858.75
2023-05-01T10:19:10.661Z,100853.19
2023-05-01T10:20:14.332Z,100858.09
2023-05-01T10:21:18.331Z,100863.03
2023-05-01T10:22:22.905Z,100854.66
2023-05-01T10:23:26.736Z,100847.34
2023-05-01T10:24:30.453Z,100856.88
2023-05-01T10:25:34.460Z,100855.50
2023-05-01T10:26:38.605Z,100849.97
2023-05-01T10:27:42.697Z,100851.81
2023-05-01T10:28:49.081Z,100851.19
2023-05-01T10:29:54.366Z,100848.13
2023-05-01T10:30:58.813Z,100844.44
2023-05-01T10:32:03.238Z,100841.59
2023-05-01T10:33:07.174Z,100849.41
2023-05-01T10:34:12.193Z,100844.38
2023-05-01T10:35:20.150Z,100844.13
2023-05-01T10:36:54.163Z,100843.88
2023-05-01T10:38:03.100Z,100841.63
2023-05-01T10:39:06.630Z,100844.69
2023-05-01T10:40:41.180Z,100840.50
2023-05-01T10:42:00.236Z,100842.91
2023-05-01T10:43:18.983Z,100837.59
2023-05-01T10:44:24.419Z,100835.94
2023-05-01T10:45:31.613Z,100836.78
2023-05-01T10:46:35.470Z,100838.13
2023-05-01T10:47:42.867Z,100833.00
2023-05-01T10:48:46.976Z,100840.53
2023-05-01T10:50:06.081Z,100836.44
2023-05-01T10:51:21.207Z,100838.59
2023-05-01T10:52:25.054Z,100848.22
2023-05-01T10:53:28.379Z,100845.00
2023-05-01T10:54:33.599Z,100847.22
2023-05-01T10:55:38.316Z,100845.34
2023-05-01T10:56:43.604Z,100841.22
2023-05-01T10:57:46.864Z,100847.31
2023-05-01T10:59:05.754Z,100850.09
2023-05-01T11:00:10.090Z,100835.28
2023-05-01T11:01:35.460Z,100834.84
2023-05-01T11:02:39.004Z,100842.66
2023-05-01T11:03:42.614Z,100842.31
2023-05-01T11:04:51.962Z,100839.94
2023-05-01T11:06:01.325Z,100837.94
2023-05-01T11:07:12.021Z,100842.03
2023-05-01T11:08:33.930Z,100850.38
2023-05-01T11:09:56.032Z,100850.75
2023-05-01T11:11:06.728Z,100840.97
2023-05-01T11:12:11.749Z,100845.31
2023-05-01T11:13:15.941Z,100838.06
2023-05-01T11:14:20.351Z,100844.72
2023-05-01T11:15:34.913Z,100833.38
2023-05-01T11:16:43.796Z,100844.53
2023-05-01T11:17:47.814Z,100838.72
2023-05-01T11:18:51.769Z,100837.72
2023-05-01T11:19:55.626Z,100836.19
2023-05-01T11:20:59.737Z,100839.47
2023-05-01T11:22:03.219Z,100839.28
2023-05-01T11:23:06.992Z,100844.47
2023-05-01T11:24:10.607Z,100849.03
2023-05-01T11:25:24.160Z,100846.41
2023-05-01T11:26:27.725Z,100850.94
2023-05-01T11:27:34.971Z,100843.34
2023-05-01T11:28:39.483Z,100841.28
2023-05-01T11:29:45.006Z,100852.59
2023-05-01T11:30:48.713Z,100841.69
2023-05-01T11:31:52.567Z,100844.38
2023-05-01T11:32:55.839Z,100842.59
2023-05-01T11:34:00.549Z,100843.66
2023-05-01T11:35:04.298Z,100840.16
2023-05-01T11:36:08.333Z,100840.94
2023-05-01T11:37:12.084Z,100838.22
2023-05-01T11:38:22.675Z,100841.81
2023-05-01T11:39:26.277Z,100837.25
2023-05-01T11:40:35.280Z,100837.91
2023-05-01T11:41:39.006Z,100831.81
2023-05-01T11:42:42.131Z,100844.31
2023-05-01T11:43:58.873Z,100840.75
2023-05-01T11:45:14.467Z,100843.22
2023-05-01T11:46:28.474Z,100840.59
2023-05-01T11:47:35.102Z,100845.84
2023-05-01T11:48:38.964Z,100839.25
2023-05-01T11:49:42.972Z,100831.63
2023-05-01T11:50:47.014Z,100843.13
2023-05-01T11:51:58.694Z,100842.50
2023-05-01T11:53:02.496Z,100840.25
2023-05-01T11:54:06.608Z,100839.63
2023-05-01T11:55:11.394Z,100832.25
2023-05-01T11:56:26.413Z,100834.28
2023-05-01T11:57:31.834Z,100831.84
2023-05-01T11:58:35.311Z,100826.28
2023-05-01T11:59:39.245Z,100826.88
2023-05-01T12:00:43.718Z,100823.91
2023-05-01T12:01:47.734Z,100822.78
2023-05-01T12:03:10.857Z,100819.69
2023-05-01T12:04:15.912Z,100816.69
2023-05-01T12:05:19.797Z,100810.63
2023-05-01T12:06:23.492Z,100811.34
2023-05-01T12:07:27.117Z,100812.06
2023-05-01T12:08:30.678Z,100813.81
2023-05-01T12:09:34.422Z,100808.97
2023-05-01T12:10:38.570Z,100803.72
2023-05-01T12:11:42.471Z,100805.03
2023-05-01T12:12:45.841Z,100805.63
2023-05-01T12:13:50.798Z,100798.56
2023-05-01T12:14:54.494Z,100796.72
2023-05-01T12:15:57.727Z,100790.50
2023-05-01T12:17:01.464Z,100791.88
2023-05-01T12:18:06.643Z,100785.25
2023-05-01T12:19:12.847Z,100784.31
2023-05-01T12:20:16.836Z,100774.00
2023-05-01T12:21:20.359Z,100779.56
2023-05-01T12:22:24.163Z,100770.59
2023-05-01T12:23:36.077Z,100768.25
2023-05-01T12:24:40.434Z,100775.19
2023-05-01T12:25:44.816Z,100771.09
2023-05-01T12:26:48.381Z,100768.78
2023-05-01T12:27:52.267Z,100759.81
2023-05-01T12:29:01.027Z,100765.97
2023-05-01T12:30:04.603Z,100766.88
2023-05-01T12:31:08.725Z,100766.22
2023-05-01T12:32:12.486Z,100767.81